Bethel Regional Airport (0B1)
Bethel, ME
Field Elevation: 674
Lat: 44°25.51N  Long: 70°48.60W
CTAF/Unicom Freq: 122.9000
   
     For Weather-by-Phone, call 207-512-2516
Weather Advisories
2019-08-23   14:05 Z
Altimeter 29.97" Hg
Wind 340° @ 10 KT
Gusts 14 KT
Visibility 10 SM
Ceiling FEW044
Temperature 21° C (70° F)
Dewpoint 12° C (54° F)
Relative Humidity 57%
Density Altitude --
Condensation Altitude 5,100 feet
Wind and Runways
Indicated Runway = 32
Headwind = 9 kt
Crosswind = 3 kt
History
 
 
 
More Info
All DigiWx sites map
 
NOAA Forecast
 
Airport IQ 5010
(KBXM) Brunswick, ME
(39N) Princeton, NJ
 
about DigiWx
 
FAA Disclaimer: The data displayed is for advisory purposes only and is not to be used for flight planning or operations. For official data, please call 207-512-2516 to hear the current automated AWOS voice message.
  METAR 0B1 231405Z AUTO 34010G14KT 10 SM FEW044 21/12 A2997